createdAt,value
2018-07-26T00:00:04.582Z,1002.52
2018-07-26T00:01:04.561Z,1002.52
2018-07-26T00:02:04.538Z,1002.50
2018-07-26T00:03:04.513Z,1002.50
2018-07-26T00:04:04.490Z,1002.52
2018-07-26T00:05:04.467Z,1002.49
2018-07-26T00:06:04.446Z,1002.47
2018-07-26T00:07:04.421Z,1002.48
2018-07-26T00:08:04.399Z,1002.51
2018-07-26T00:09:04.375Z,1002.45
2018-07-26T00:10:04.352Z,1002.46
2018-07-26T00:11:04.328Z,1002.44
2018-07-26T00:12:04.307Z,1002.45
2018-07-26T00:13:04.286Z,1002.43
2018-07-26T00:14:04.260Z,1002.41
2018-07-26T00:15:04.238Z,1002.44
2018-07-26T00:16:04.215Z,1002.42
2018-07-26T00:17:04.192Z,1002.40
2018-07-26T00:18:04.166Z,1002.47
2018-07-26T00:19:04.142Z,1002.47
2018-07-26T00:20:04.118Z,1002.44
2018-07-26T00:21:04.096Z,1002.47
2018-07-26T00:22:04.072Z,1002.50
2018-07-26T00:23:04.050Z,1002.51
2018-07-26T00:24:04.031Z,1002.53
2018-07-26T00:25:04.003Z,1002.47
2018-07-26T00:26:03.979Z,1002.50
2018-07-26T00:27:03.957Z,1002.51
2018-07-26T00:28:03.935Z,1002.50
2018-07-26T00:29:03.909Z,1002.46
2018-07-26T00:30:03.888Z,1002.49
2018-07-26T00:31:03.863Z,1002.49
2018-07-26T00:32:03.839Z,1002.49
2018-07-26T00:33:03.818Z,1002.49
2018-07-26T00:34:03.795Z,1002.51
2018-07-26T00:35:03.784Z,1002.53
2018-07-26T00:36:03.752Z,1002.51
2018-07-26T00:37:03.726Z,1002.50
2018-07-26T00:38:03.699Z,1002.49
2018-07-26T00:39:03.678Z,1002.51
2018-07-26T00:40:03.653Z,1002.55
2018-07-26T00:41:03.630Z,1002.57
2018-07-26T00:42:03.607Z,1002.52
2018-07-26T00:43:03.584Z,1002.60
2018-07-26T00:44:03.575Z,1002.57
2018-07-26T00:45:03.600Z,1002.56
2018-07-26T00:46:03.513Z,1002.53
2018-07-26T00:47:03.491Z,1002.53
2018-07-26T00:48:03.466Z,1002.51
2018-07-26T00:49:03.443Z,1002.50
2018-07-26T00:50:03.422Z,1002.45
2018-07-26T00:51:03.396Z,1002.44
2018-07-26T00:52:03.375Z,1002.49
2018-07-26T00:53:03.350Z,1002.44
2018-07-26T00:54:03.327Z,1002.45
2018-07-26T00:55:03.303Z,1002.45
2018-07-26T00:56:03.280Z,1002.53
2018-07-26T00:57:03.259Z,1002.51
2018-07-26T00:58:03.238Z,1002.54
2018-07-26T00:59:03.211Z,1002.56
2018-07-26T01:00:03.188Z,1002.54
2018-07-26T01:01:03.164Z,1002.56
2018-07-26T01:02:03.141Z,1002.52
2018-07-26T01:03:03.116Z,1002.52
2018-07-26T01:04:03.090Z,1002.50
2018-07-26T01:05:03.070Z,1002.46
2018-07-26T01:06:03.048Z,1002.49
2018-07-26T01:07:03.022Z,1002.48
2018-07-26T01:08:03.001Z,1002.44
2018-07-26T01:09:02.976Z,1002.44
2018-07-26T01:10:02.953Z,1002.43
2018-07-26T01:11:02.934Z,1002.44
2018-07-26T01:12:02.905Z,1002.46
2018-07-26T01:13:02.888Z,1002.47
2018-07-26T01:14:02.862Z,1002.48
2018-07-26T01:15:02.836Z,1002.43
2018-07-26T01:16:02.813Z,1002.43
2018-07-26T01:17:02.789Z,1002.43
2018-07-26T01:18:02.773Z,1002.43
2018-07-26T01:19:02.742Z,1002.42
2018-07-26T01:20:02.718Z,1002.37
2018-07-26T01:21:02.697Z,1002.40
2018-07-26T01:22:02.671Z,1002.41
2018-07-26T01:23:02.646Z,1002.39
2018-07-26T01:24:02.626Z,1002.41
2018-07-26T01:25:02.603Z,1002.42
2018-07-26T01:26:02.584Z,1002.39
2018-07-26T01:27:02.556Z,1002.38
2018-07-26T01:28:02.530Z,1002.41
2018-07-26T01:29:02.506Z,1002.35
2018-07-26T01:30:02.498Z,1002.35
2018-07-26T01:31:02.463Z,1002.37
2018-07-26T01:32:02.436Z,1002.34
2018-07-26T01:33:02.412Z,1002.35
2018-07-26T01:34:02.389Z,1002.35
2018-07-26T01:35:02.365Z,1002.33
2018-07-26T01:36:02.345Z,1002.34
2018-07-26T01:37:02.318Z,1002.32
2018-07-26T01:38:02.294Z,1002.32
2018-07-26T01:39:02.271Z,1002.36
2018-07-26T01:40:02.246Z,1002.36
2018-07-26T01:41:02.228Z,1002.36
2018-07-26T01:42:02.203Z,1002.36
2018-07-26T01:43:02.178Z,1002.35
2018-07-26T01:44:02.154Z,1002.32
2018-07-26T01:45:02.134Z,1002.31
2018-07-26T01:46:02.107Z,1002.33
2018-07-26T01:47:02.084Z,1002.33
2018-07-26T01:48:02.060Z,1002.32
2018-07-26T01:49:02.038Z,1002.34
2018-07-26T01:50:02.027Z,1002.32
2018-07-26T01:51:01.990Z,1002.34
2018-07-26T01:52:01.966Z,1002.33
2018-07-26T01:53:01.942Z,1002.29
2018-07-26T01:54:01.917Z,1002.32
2018-07-26T01:55:01.896Z,1002.29
2018-07-26T01:56:01.870Z,1002.29
2018-07-26T01:57:01.848Z,1002.31
2018-07-26T01:58:01.828Z,1002.32
2018-07-26T01:59:01.804Z,1002.35
2018-07-26T02:00:01.778Z,1002.36
2018-07-26T02:01:01.754Z,1002.35
2018-07-26T02:02:01.732Z,1002.41
2018-07-26T02:03:01.707Z,1002.41
2018-07-26T02:04:01.683Z,1002.40
2018-07-26T02:05:01.665Z,1002.42
2018-07-26T02:06:01.637Z,1002.43
2018-07-26T02:07:01.614Z,1002.42
2018-07-26T02:08:01.592Z,1002.41
2018-07-26T02:09:01.566Z,1002.42
2018-07-26T02:10:01.545Z,1002.47
2018-07-26T02:11:01.518Z,1002.41
2018-07-26T02:12:01.499Z,1002.41
2018-07-26T02:13:01.472Z,1002.37
2018-07-26T02:14:01.446Z,1002.37
2018-07-26T02:15:01.428Z,1002.35
2018-07-26T02:16:01.401Z,1002.37
2018-07-26T02:17:01.377Z,1002.31
2018-07-26T02:18:01.354Z,1002.31
2018-07-26T02:19:01.333Z,1002.30
2018-07-26T02:20:01.309Z,1002.32
2018-07-26T02:21:01.285Z,1002.31
2018-07-26T02:22:01.258Z,1002.29
2018-07-26T02:23:01.235Z,1002.30
2018-07-26T02:24:01.216Z,1002.32
2018-07-26T02:25:01.189Z,1002.32
2018-07-26T02:26:01.164Z,1002.32
2018-07-26T02:27:01.143Z,1002.34
2018-07-26T02:28:01.117Z,1002.31
2018-07-26T02:29:01.097Z,1002.31
2018-07-26T02:30:01.070Z,1002.29
2018-07-26T02:31:01.072Z,1002.28
2018-07-26T02:32:01.026Z,1002.29
2018-07-26T02:33:00.999Z,1002.34
2018-07-26T02:34:00.980Z,1002.30
2018-07-26T02:35:00.954Z,1002.32
2018-07-26T02:36:00.927Z,1002.31
2018-07-26T02:37:00.904Z,1002.29
2018-07-26T02:38:00.879Z,1002.27
2018-07-26T02:39:00.859Z,1002.26
2018-07-26T02:40:00.832Z,1002.25
2018-07-26T02:41:00.811Z,1002.25
2018-07-26T02:42:00.788Z,1002.22
2018-07-26T02:43:00.765Z,1002.26
2018-07-26T02:44:00.740Z,1002.27
2018-07-26T02:45:00.716Z,1002.27
2018-07-26T02:46:00.695Z,1002.30
2018-07-26T02:47:00.671Z,1002.27
2018-07-26T02:48:00.644Z,1002.29
2018-07-26T02:49:00.620Z,1002.33
2018-07-26T02:50:00.669Z,1002.34
2018-07-26T02:51:00.573Z,1002.30
2018-07-26T02:52:00.548Z,1002.31
2018-07-26T02:53:00.527Z,1002.34
2018-07-26T02:54:00.501Z,1002.34
2018-07-26T02:55:00.479Z,1002.35
2018-07-26T02:56:00.455Z,1002.34
2018-07-26T02:57:00.430Z,1002.34
2018-07-26T02:58:00.411Z,1002.38
2018-07-26T02:59:00.388Z,1002.35
2018-07-26T03:00:00.360Z,1002.34
2018-07-26T03:01:00.335Z,1002.34
2018-07-26T03:02:00.316Z,1002.33
2018-07-26T03:03:00.294Z,1002.37
2018-07-26T03:04:00.266Z,1002.35
2018-07-26T03:05:00.242Z,1002.37
2018-07-26T03:06:00.218Z,1002.32
2018-07-26T03:07:00.225Z,1002.31
2018-07-26T03:08:00.170Z,1002.36
2018-07-26T03:09:00.149Z,1002.39
2018-07-26T03:10:00.126Z,1002.38
2018-07-26T03:11:00.102Z,1002.39
2018-07-26T03:12:00.075Z,1002.39
2018-07-26T03:13:00.052Z,1002.39
2018-07-26T03:14:00.032Z,1002.35
2018-07-26T03:15:00.022Z,1002.38
2018-07-26T03:15:59.983Z,1002.38
2018-07-26T03:16:59.957Z,1002.35
2018-07-26T03:17:59.935Z,1002.37
2018-07-26T03:18:59.921Z,1002.40
2018-07-26T03:19:59.893Z,1002.39
2018-07-26T03:20:59.923Z,1002.41
2018-07-26T03:21:59.841Z,1002.43
2018-07-26T03:22:59.820Z,1002.40
2018-07-26T03:23:59.792Z,1002.40
2018-07-26T03:24:59.768Z,1002.36
2018-07-26T03:25:59.742Z,1002.35
2018-07-26T03:26:59.721Z,1002.34
2018-07-26T03:27:59.697Z,1002.35
2018-07-26T03:28:59.673Z,1002.32
2018-07-26T03:29:59.650Z,1002.32
2018-07-26T03:30:59.627Z,1002.31
2018-07-26T03:31:59.602Z,1002.33
2018-07-26T03:32:59.578Z,1002.27
2018-07-26T03:33:59.553Z,1002.28
2018-07-26T03:34:59.531Z,1002.32
2018-07-26T03:35:59.506Z,1002.31
2018-07-26T03:36:59.481Z,1002.27
2018-07-26T03:37:59.459Z,1002.26
2018-07-26T03:38:59.435Z,1002.32
2018-07-26T03:39:59.411Z,1002.28
2018-07-26T03:40:59.389Z,1002.29
2018-07-26T03:41:59.367Z,1002.30
2018-07-26T03:42:59.344Z,1002.28
2018-07-26T03:43:59.320Z,1002.31
2018-07-26T03:44:59.293Z,1002.31
2018-07-26T03:45:59.277Z,1002.30
2018-07-26T03:46:59.249Z,1002.33
2018-07-26T03:47:59.226Z,1002.33
2018-07-26T03:48:59.207Z,1002.32
2018-07-26T03:49:59.173Z,1002.35
2018-07-26T03:50:59.150Z,1002.29
2018-07-26T03:51:59.128Z,1002.34
2018-07-26T03:52:59.101Z,1002.33
2018-07-26T03:53:59.080Z,1002.36
2018-07-26T03:54:59.055Z,1002.35
2018-07-26T03:55:59.030Z,1002.37
2018-07-26T03:56:59.007Z,1002.38
2018-07-26T03:57:58.982Z,1002.37
2018-07-26T03:58:58.960Z,1002.35
2018-07-26T03:59:58.934Z,1002.38
2018-07-26T04:00:58.912Z,1002.36
2018-07-26T04:01:58.891Z,1002.35
2018-07-26T04:02:58.865Z,1002.36
2018-07-26T04:03:58.841Z,1002.33
2018-07-26T04:04:58.816Z,1002.36
2018-07-26T04:05:58.793Z,1002.33
2018-07-26T04:06:58.768Z,1002.36
2018-07-26T04:07:58.744Z,1002.36
2018-07-26T04:08:58.724Z,1002.35
2018-07-26T04:09:58.695Z,1002.35
2018-07-26T04:10:58.672Z,1002.35
2018-07-26T04:11:58.650Z,1002.35
2018-07-26T04:12:58.627Z,1002.35
2018-07-26T04:13:58.615Z,1002.32
2018-07-26T04:14:58.578Z,1002.39
2018-07-26T04:15:58.552Z,1002.39
2018-07-26T04:16:58.530Z,1002.43
2018-07-26T04:17:58.507Z,1002.41
2018-07-26T04:18:58.483Z,1002.41
2018-07-26T04:19:58.498Z,1002.44
2018-07-26T04:20:58.435Z,1002.42
2018-07-26T04:21:58.413Z,1002.42
2018-07-26T04:22:58.386Z,1002.41
2018-07-26T04:23:58.364Z,1002.40
2018-07-26T04:24:58.339Z,1002.40
2018-07-26T04:25:58.320Z,1002.38
2018-07-26T04:26:58.292Z,1002.38
2018-07-26T04:27:58.274Z,1002.37
2018-07-26T04:28:58.246Z,1002.39
2018-07-26T04:29:58.247Z,1002.37
2018-07-26T04:30:58.200Z,1002.39
2018-07-26T04:31:58.237Z,1002.36
2018-07-26T04:32:58.155Z,1002.39
2018-07-26T04:33:58.128Z,1002.38
2018-07-26T04:34:58.106Z,1002.42
2018-07-26T04:35:58.077Z,1002.36
2018-07-26T04:36:58.053Z,1002.38
2018-07-26T04:37:58.032Z,1002.37
2018-07-26T04:38:58.006Z,1002.37
2018-07-26T04:39:57.986Z,1002.38
2018-07-26T04:40:57.960Z,1002.40
2018-07-26T04:41:57.934Z,1002.37
2018-07-26T04:42:57.968Z,1002.39
2018-07-26T04:43:57.886Z,1002.38
2018-07-26T04:44:57.863Z,1002.37
2018-07-26T04:45:57.844Z,1002.38
2018-07-26T04:46:57.818Z,1002.39
2018-07-26T04:47:57.791Z,1002.37
2018-07-26T04:48:57.786Z,1002.33
2018-07-26T04:49:57.745Z,1002.35
2018-07-26T04:50:57.720Z,1002.34
2018-07-26T04:51:57.697Z,1002.36
2018-07-26T04:52:57.672Z,1002.34
2018-07-26T04:53:57.650Z,1002.36
2018-07-26T04:54:57.626Z,1002.40
2018-07-26T04:55:57.604Z,1002.38
2018-07-26T04:56:57.577Z,1002.40
2018-07-26T04:57:57.559Z,1002.38
2018-07-26T04:58:57.531Z,1002.39
2018-07-26T04:59:57.509Z,1002.37
2018-07-26T05:00:57.483Z,1002.36
2018-07-26T05:01:57.459Z,1002.36
2018-07-26T05:02:57.436Z,1002.38
2018-07-26T05:03:57.410Z,1002.35
2018-07-26T05:04:57.389Z,1002.31
2018-07-26T05:05:57.363Z,1002.32
2018-07-26T05:06:57.339Z,1002.32
2018-07-26T05:07:57.316Z,1002.35
2018-07-26T05:08:57.296Z,1002.34
2018-07-26T05:09:57.268Z,1002.34
2018-07-26T05:10:57.243Z,1002.36
2018-07-26T05:11:57.219Z,1002.37
2018-07-26T05:12:57.326Z,1002.39
2018-07-26T05:13:57.180Z,1002.39
2018-07-26T05:14:57.151Z,1002.41
2018-07-26T05:15:57.123Z,1002.44
2018-07-26T05:16:57.102Z,1002.44
2018-07-26T05:17:57.078Z,1002.44
2018-07-26T05:18:57.087Z,1002.43
2018-07-26T05:19:57.030Z,1002.46
2018-07-26T05:20:57.009Z,1002.46
2018-07-26T05:21:56.988Z,1002.44
2018-07-26T05:22:56.963Z,1002.39
2018-07-26T05:23:56.934Z,1002.38
2018-07-26T05:24:56.913Z,1002.40
2018-07-26T05:25:56.887Z,1002.40
2018-07-26T05:26:56.870Z,1002.42
2018-07-26T05:27:56.840Z,1002.40
2018-07-26T05:28:56.818Z,1002.41
2018-07-26T05:29:56.796Z,1002.40
2018-07-26T05:30:56.768Z,1002.44
2018-07-26T05:31:56.745Z,1002.43
2018-07-26T05:32:56.729Z,1002.42
2018-07-26T05:33:56.697Z,1002.41
2018-07-26T05:34:56.680Z,1002.42
2018-07-26T05:35:56.650Z,1002.45
2018-07-26T05:36:56.629Z,1002.45
2018-07-26T05:37:56.645Z,1002.43
2018-07-26T05:38:56.584Z,1002.47
2018-07-26T05:39:56.558Z,1002.47
2018-07-26T05:40:56.554Z,1002.48
2018-07-26T05:41:56.513Z,1002.47
2018-07-26T05:42:56.485Z,1002.47
2018-07-26T05:43:56.466Z,1002.49
2018-07-26T05:44:56.437Z,1002.45
2018-07-26T05:45:56.415Z,1002.51
2018-07-26T05:46:56.391Z,1002.48
2018-07-26T05:47:56.370Z,1002.49
2018-07-26T05:48:56.341Z,1002.50
2018-07-26T05:49:56.321Z,1002.53
2018-07-26T05:50:56.329Z,1002.50
2018-07-26T05:51:56.278Z,1002.48
2018-07-26T05:52:56.246Z,1002.50
2018-07-26T05:53:56.233Z,1002.49
2018-07-26T05:54:56.199Z,1002.50
2018-07-26T05:55:56.175Z,1002.51
2018-07-26T05:56:56.151Z,1002.58
2018-07-26T05:57:56.136Z,1002.50
2018-07-26T05:58:56.106Z,1002.51
2018-07-26T05:59:56.087Z,1002.53
2018-07-26T06:00:56.057Z,1002.57
2018-07-26T06:01:56.054Z,1002.57
2018-07-26T06:02:56.011Z,1002.55
2018-07-26T06:03:55.990Z,1002.60
2018-07-26T06:04:55.970Z,1002.57
2018-07-26T06:05:55.940Z,1002.61
2018-07-26T06:06:55.925Z,1002.52
2018-07-26T06:07:55.896Z,1002.56
2018-07-26T06:08:55.867Z,1002.56
2018-07-26T06:09:55.844Z,1002.52
2018-07-26T06:10:55.834Z,1002.52
2018-07-26T06:11:55.796Z,1002.52
2018-07-26T06:12:55.773Z,1002.51
2018-07-26T06:13:55.753Z,1002.56
2018-07-26T06:14:55.729Z,1002.53
2018-07-26T06:15:55.704Z,1002.55
2018-07-26T06:16:55.683Z,1002.56
2018-07-26T06:17:55.657Z,1002.54
2018-07-26T06:18:55.642Z,1002.54
2018-07-26T06:19:55.608Z,1002.49
2018-07-26T06:20:55.586Z,1002.49
2018-07-26T06:21:55.560Z,1002.47
2018-07-26T06:22:55.543Z,1002.49
2018-07-26T06:23:55.515Z,1002.52
2018-07-26T06:24:55.498Z,1002.51
2018-07-26T06:25:55.466Z,1002.52
2018-07-26T06:26:55.447Z,1002.54
2018-07-26T06:27:55.432Z,1002.53
2018-07-26T06:28:55.396Z,1002.54
2018-07-26T06:29:55.377Z,1002.56
2018-07-26T06:30:55.355Z,1002.56
2018-07-26T06:31:55.332Z,1002.54
2018-07-26T06:32:55.301Z,1002.52
2018-07-26T06:33:55.282Z,1002.54
2018-07-26T06:34:55.262Z,1002.55
2018-07-26T06:35:55.231Z,1002.52
2018-07-26T06:36:55.208Z,1002.53
2018-07-26T06:37:55.189Z,1002.55
2018-07-26T06:38:55.162Z,1002.54
2018-07-26T06:39:55.137Z,1002.57
2018-07-26T06:40:55.114Z,1002.57
2018-07-26T06:41:55.095Z,1002.56
2018-07-26T06:42:55.070Z,1002.58
2018-07-26T06:43:55.050Z,1002.58
2018-07-26T06:44:55.028Z,1002.58
2018-07-26T06:45:54.997Z,1002.58
2018-07-26T06:46:54.977Z,1002.59
2018-07-26T06:47:54.951Z,1002.57
2018-07-26T06:48:54.927Z,1002.61
2018-07-26T06:49:54.903Z,1002.61
2018-07-26T06:50:54.886Z,1002.57
2018-07-26T06:51:54.860Z,1002.57
2018-07-26T06:52:54.840Z,1002.61
2018-07-26T06:53:54.810Z,1002.60
2018-07-26T06:54:54.789Z,1002.59
2018-07-26T06:55:54.776Z,1002.59
2018-07-26T06:56:54.739Z,1002.62
2018-07-26T06:57:54.726Z,1002.58
2018-07-26T06:58:54.699Z,1002.61
2018-07-26T06:59:54.673Z,1002.60
2018-07-26T07:00:54.692Z,1002.65
2018-07-26T07:01:54.627Z,1002.66
2018-07-26T07:02:54.602Z,1002.63
2018-07-26T07:03:54.578Z,1002.62
2018-07-26T07:04:54.565Z,1002.60
2018-07-26T07:05:54.534Z,1002.57
2018-07-26T07:06:54.511Z,1002.63
2018-07-26T07:07:54.491Z,1002.61
2018-07-26T07:08:54.496Z,1002.59
2018-07-26T07:09:54.445Z,1002.58
2018-07-26T07:10:54.488Z,1002.61
2018-07-26T07:11:54.406Z,1002.57
2018-07-26T07:12:54.374Z,1002.59
2018-07-26T07:13:54.347Z,1002.57
2018-07-26T07:14:54.324Z,1002.56
2018-07-26T07:15:54.301Z,1002.57
2018-07-26T07:16:54.293Z,1002.54
2018-07-26T07:17:54.253Z,1002.51
2018-07-26T07:18:54.232Z,1002.54
2018-07-26T07:19:54.212Z,1002.53
2018-07-26T07:20:54.184Z,1002.53
2018-07-26T07:21:54.168Z,1002.52
2018-07-26T07:22:54.141Z,1002.53
2018-07-26T07:23:54.152Z,1002.52
2018-07-26T07:24:54.094Z,1002.55
2018-07-26T07:25:54.075Z,1002.55
2018-07-26T07:26:54.068Z,1002.54
2018-07-26T07:27:54.045Z,1002.57
2018-07-26T07:28:54.005Z,1002.53
2018-07-26T07:29:53.980Z,1002.56
2018-07-26T07:30:53.956Z,1002.53
2018-07-26T07:31:53.934Z,1002.52
2018-07-26T07:32:53.919Z,1002.50
2018-07-26T07:33:53.887Z,1002.51
2018-07-26T07:34:53.863Z,1002.47
2018-07-26T07:35:53.845Z,1002.50
2018-07-26T07:36:53.819Z,1002.50
2018-07-26T07:37:53.796Z,1002.49
2018-07-26T07:38:53.775Z,1002.47
2018-07-26T07:39:53.758Z,1002.49
2018-07-26T07:40:53.728Z,1002.50
2018-07-26T07:41:53.705Z,1002.50
2018-07-26T07:42:53.688Z,1002.48
2018-07-26T07:43:53.658Z,1002.46
2018-07-26T07:44:53.638Z,1002.46
2018-07-26T07:45:53.616Z,1002.47
2018-07-26T07:46:53.613Z,1002.43
2018-07-26T07:47:53.568Z,1002.41
2018-07-26T07:48:53.545Z,1002.42
2018-07-26T07:49:53.531Z,1002.40
2018-07-26T07:50:53.505Z,1002.39
2018-07-26T07:51:53.472Z,1002.44
2018-07-26T07:52:53.522Z,1002.44
2018-07-26T07:53:53.431Z,1002.45
2018-07-26T07:54:53.408Z,1002.43
2018-07-26T07:55:53.385Z,1002.43
2018-07-26T07:56:53.373Z,1002.44
2018-07-26T07:57:53.338Z,1002.43
2018-07-26T07:58:53.319Z,1002.46
2018-07-26T07:59:53.344Z,1002.43
2018-07-26T08:00:53.279Z,1002.41
2018-07-26T08:01:53.247Z,1002.45
2018-07-26T08:02:53.226Z,1002.41
2018-07-26T08:03:53.201Z,1002.41
2018-07-26T08:04:53.183Z,1002.40
2018-07-26T08:05:53.157Z,1002.38
2018-07-26T08:06:53.136Z,1002.35
2018-07-26T08:07:53.115Z,1002.40
2018-07-26T08:08:53.090Z,1002.40
2018-07-26T08:09:53.066Z,1002.40
2018-07-26T08:10:53.054Z,1002.36
2018-07-26T08:11:53.021Z,1002.37
2018-07-26T08:12:53.001Z,1002.35
2018-07-26T08:13:52.979Z,1002.39
2018-07-26T08:14:52.953Z,1002.37
2018-07-26T08:15:52.935Z,1002.38
2018-07-26T08:16:52.907Z,1002.38
2018-07-26T08:17:52.889Z,1002.39
2018-07-26T08:18:52.863Z,1002.38
2018-07-26T08:19:52.852Z,1002.40
2018-07-26T08:20:52.823Z,1002.40
2018-07-26T08:21:52.800Z,1002.39
2018-07-26T08:22:52.780Z,1002.40
2018-07-26T08:23:52.749Z,1002.41
2018-07-26T08:24:52.728Z,1002.38
2018-07-26T08:25:52.709Z,1002.42
2018-07-26T08:26:52.688Z,1002.40
2018-07-26T08:27:52.668Z,1002.40
2018-07-26T08:28:52.644Z,1002.37
2018-07-26T08:29:52.618Z,1002.39
2018-07-26T08:30:52.611Z,1002.39
2018-07-26T08:31:52.576Z,1002.38
2018-07-26T08:32:52.549Z,1002.37
2018-07-26T08:33:52.529Z,1002.38
2018-07-26T08:34:52.506Z,1002.35
2018-07-26T08:35:52.483Z,1002.35
2018-07-26T08:36:52.460Z,1002.36
2018-07-26T08:37:52.436Z,1002.39
2018-07-26T08:38:52.420Z,1002.40
2018-07-26T08:39:52.392Z,1002.40
2018-07-26T08:40:52.370Z,1002.37
2018-07-26T08:41:52.356Z,1002.38
2018-07-26T08:42:52.328Z,1002.34
2018-07-26T08:43:52.304Z,1002.34
2018-07-26T08:44:52.281Z,1002.31
2018-07-26T08:45:52.263Z,1002.32
2018-07-26T08:46:52.237Z,1002.31
2018-07-26T08:47:52.216Z,1002.29
2018-07-26T08:48:52.199Z,1002.28
2018-07-26T08:49:52.175Z,1002.31
2018-07-26T08:50:52.151Z,1002.30
2018-07-26T08:51:52.209Z,1002.33
2018-07-26T08:52:52.106Z,1002.29
2018-07-26T08:53:52.083Z,1002.32
2018-07-26T08:54:52.059Z,1002.33
2018-07-26T08:55:52.037Z,1002.34
2018-07-26T08:56:52.016Z,1002.32
2018-07-26T08:57:51.996Z,1002.33
2018-07-26T08:58:51.970Z,1002.35
2018-07-26T08:59:51.950Z,1002.35
2018-07-26T09:00:51.926Z,1002.34
2018-07-26T09:01:51.903Z,1002.36
2018-07-26T09:02:51.884Z,1002.34
2018-07-26T09:03:51.859Z,1002.36
2018-07-26T09:04:51.836Z,1002.35
2018-07-26T09:05:51.816Z,1002.34
2018-07-26T09:06:51.795Z,1002.34
2018-07-26T09:07:51.773Z,1002.38
2018-07-26T09:08:51.763Z,1002.37
2018-07-26T09:09:51.772Z,1002.36
2018-07-26T09:10:51.720Z,1002.38
2018-07-26T09:11:51.688Z,1002.34
2018-07-26T09:12:51.661Z,1002.34
2018-07-26T09:13:51.661Z,1002.33
2018-07-26T09:14:52.404Z,1002.34
2018-07-26T09:15:51.600Z,1002.31
2018-07-26T09:16:51.573Z,1002.32
2018-07-26T09:17:51.551Z,1002.30
2018-07-26T09:18:51.532Z,1002.30
2018-07-26T09:19:51.555Z,1002.32
2018-07-26T09:20:51.490Z,1002.29
2018-07-26T09:21:51.465Z,1002.27
2018-07-26T09:22:51.443Z,1002.26
2018-07-26T09:23:51.420Z,1002.27
2018-07-26T09:24:51.398Z,1002.27
2018-07-26T09:25:51.379Z,1002.30
2018-07-26T09:26:51.385Z,1002.32
2018-07-26T09:27:51.337Z,1002.30
2018-07-26T09:28:51.316Z,1002.31
2018-07-26T09:29:51.290Z,1002.31
2018-07-26T09:30:51.276Z,1002.26
2018-07-26T09:31:51.246Z,1002.28
2018-07-26T09:32:51.230Z,1002.27
2018-07-26T09:33:51.206Z,1002.30
2018-07-26T09:34:51.182Z,1002.29
2018-07-26T09:35:51.161Z,1002.32
2018-07-26T09:36:51.145Z,1002.30
2018-07-26T09:37:51.118Z,1002.28
2018-07-26T09:38:51.102Z,1002.26
2018-07-26T09:39:51.073Z,1002.30
2018-07-26T09:40:51.057Z,1002.28
2018-07-26T09:41:51.045Z,1002.29
2018-07-26T09:42:51.030Z,1002.26
2018-07-26T09:43:50.988Z,1002.24
2018-07-26T09:44:50.970Z,1002.28
2018-07-26T09:45:50.979Z,1002.27
2018-07-26T09:46:50.926Z,1002.31
2018-07-26T09:47:50.905Z,1002.28
2018-07-26T09:48:50.893Z,1002.28
2018-07-26T09:49:50.942Z,1002.25
2018-07-26T09:50:50.839Z,1002.24
2018-07-26T09:51:50.816Z,1002.26
2018-07-26T09:52:50.805Z,1002.21
2018-07-26T09:53:50.777Z,1002.23
2018-07-26T09:54:50.812Z,1002.23
2018-07-26T09:55:50.736Z,1002.22
2018-07-26T09:56:50.745Z,1002.22
2018-07-26T09:57:50.732Z,1002.19
2018-07-26T09:58:50.677Z,1002.23
2018-07-26T09:59:50.666Z,1002.20
2018-07-26T10:00:50.671Z,1002.15
2018-07-26T10:01:50.603Z,1002.17
2018-07-26T10:02:50.583Z,1002.11
2018-07-26T10:03:50.561Z,1002.07
2018-07-26T10:04:50.540Z,1002.09
2018-07-26T10:05:50.518Z,1002.05
2018-07-26T10:06:50.518Z,1002.08
2018-07-26T10:07:50.486Z,1002.10
2018-07-26T10:08:50.469Z,1002.06
2018-07-26T10:09:50.456Z,1002.05
2018-07-26T10:10:50.413Z,1002.08
2018-07-26T10:11:50.388Z,1002.05
2018-07-26T10:12:50.367Z,1002.04
2018-07-26T10:13:50.350Z,1002.05
2018-07-26T10:14:50.336Z,1002.04
2018-07-26T10:15:50.314Z,1002.04
2018-07-26T10:16:50.286Z,1002.08
2018-07-26T10:17:50.265Z,1002.08
2018-07-26T10:18:50.249Z,1002.06
2018-07-26T10:19:50.221Z,1002.07
2018-07-26T10:20:50.203Z,1002.07
2018-07-26T10:21:50.177Z,1002.03
2018-07-26T10:22:50.160Z,1002.07
2018-07-26T10:23:50.135Z,1002.03
2018-07-26T10:24:50.116Z,1002.07
2018-07-26T10:25:50.116Z,1002.07
2018-07-26T10:26:50.074Z,1001.99
2018-07-26T10:27:50.096Z,1002.00
2018-07-26T10:28:50.031Z,1002.05
2018-07-26T10:29:50.012Z,1002.06
2018-07-26T10:30:49.988Z,1002.07
2018-07-26T10:31:49.973Z,1002.05
2018-07-26T10:32:49.946Z,1002.07
2018-07-26T10:33:49.928Z,1002.04
2018-07-26T10:34:49.908Z,1002.06
2018-07-26T10:35:49.885Z,1002.03
2018-07-26T10:36:49.890Z,1002.01
2018-07-26T10:37:49.844Z,1002.02
2018-07-26T10:38:49.824Z,1002.01
2018-07-26T10:39:49.807Z,1001.97
2018-07-26T10:40:49.786Z,1001.94
2018-07-26T10:41:49.765Z,1001.96
2018-07-26T10:42:49.739Z,1001.92
2018-07-26T10:43:49.719Z,1001.93
2018-07-26T10:44:49.700Z,1001.95
2018-07-26T10:45:49.678Z,1001.93
2018-07-26T10:46:49.660Z,1001.95
2018-07-26T10:47:49.636Z,1001.94
2018-07-26T10:48:49.615Z,1001.95
2018-07-26T10:49:49.602Z,1001.92
2018-07-26T10:50:49.575Z,1001.89
2018-07-26T10:51:49.554Z,1001.90
2018-07-26T10:52:49.533Z,1001.89
2018-07-26T10:53:49.513Z,1001.89
2018-07-26T10:54:49.492Z,1001.87
2018-07-26T10:55:49.477Z,1001.86
2018-07-26T10:56:49.484Z,1001.85
2018-07-26T10:57:49.516Z,1001.87
2018-07-26T10:58:49.509Z,1001.86
2018-07-26T10:59:49.454Z,1001.83
2018-07-26T11:00:49.421Z,1001.84
2018-07-26T11:01:49.351Z,1001.80
2018-07-26T11:02:49.332Z,1001.76
2018-07-26T11:03:49.364Z,1001.77
2018-07-26T11:04:49.291Z,1001.75
2018-07-26T11:05:49.271Z,1001.75
2018-07-26T11:06:49.300Z,1001.75
2018-07-26T11:07:49.231Z,1001.77
2018-07-26T11:08:49.218Z,1001.75
2018-07-26T11:09:49.195Z,1001.80
2018-07-26T11:10:49.187Z,1001.77
2018-07-26T11:11:49.151Z,1001.78
2018-07-26T11:12:49.133Z,1001.76
2018-07-26T11:13:49.176Z,1001.74
2018-07-26T11:14:49.137Z,1001.77
2018-07-26T11:15:49.070Z,1001.71
2018-07-26T11:16:49.049Z,1001.76
2018-07-26T11:17:49.029Z,1001.79
2018-07-26T11:18:49.009Z,1001.80
2018-07-26T11:19:48.988Z,1001.80
2018-07-26T11:20:48.969Z,1001.81
2018-07-26T11:21:48.955Z,1001.77
2018-07-26T11:22:48.930Z,1001.72
2018-07-26T11:23:48.914Z,1001.72
2018-07-26T11:24:48.892Z,1001.73
2018-07-26T11:25:48.885Z,1001.75
2018-07-26T11:26:48.849Z,1001.76
2018-07-26T11:27:48.881Z,1001.76
2018-07-26T11:28:48.819Z,1001.77
2018-07-26T11:29:48.860Z,1001.77
2018-07-26T11:30:48.806Z,1001.80
2018-07-26T11:31:48.758Z,1001.74
2018-07-26T11:32:48.740Z,1001.72
2018-07-26T11:33:48.712Z,1001.74
2018-07-26T11:34:48.745Z,1001.73
2018-07-26T11:35:48.729Z,1001.67
2018-07-26T11:36:48.651Z,1001.69
2018-07-26T11:37:48.652Z,1001.70
2018-07-26T11:38:48.617Z,1001.68
2018-07-26T11:39:48.593Z,1001.71
2018-07-26T11:40:48.572Z,1001.59
2018-07-26T11:41:48.596Z,1001.63
2018-07-26T11:42:48.550Z,1001.63
2018-07-26T11:43:48.628Z,1001.65
2018-07-26T11:44:48.495Z,1001.61
2018-07-26T11:45:48.478Z,1001.63
2018-07-26T11:46:48.454Z,1001.59
2018-07-26T11:47:48.434Z,1001.56
2018-07-26T11:48:48.418Z,1001.55
2018-07-26T11:49:48.396Z,1001.54
2018-07-26T11:50:48.380Z,1001.57
2018-07-26T11:51:48.354Z,1001.55
2018-07-26T11:52:48.398Z,1001.57
2018-07-26T11:53:48.317Z,1001.59
2018-07-26T11:54:48.301Z,1001.55
2018-07-26T11:55:48.280Z,1001.59
2018-07-26T11:56:48.281Z,1001.57
2018-07-26T11:57:48.245Z,1001.52
2018-07-26T11:58:48.245Z,1001.53
2018-07-26T11:59:48.199Z,1001.55
2018-07-26T12:00:48.483Z,1001.52
2018-07-26T12:01:48.162Z,1001.50
2018-07-26T12:02:48.141Z,1001.48
2018-07-26T12:03:48.122Z,1001.50
2018-07-26T12:04:48.105Z,1001.43